createdAt,value
2016-12-03T00:00:22.828Z,-5.66
2016-12-03T00:01:24.299Z,-5.5
2016-12-03T00:02:25.786Z,-5.45
2016-12-03T00:03:27.313Z,-5.29
2016-12-03T00:04:28.851Z,-5.23
2016-12-03T00:05:30.330Z,-5.13
2016-12-03T00:06:31.850Z,-5.13
2016-12-03T00:07:33.360Z,-5.08
2016-12-03T00:08:34.885Z,-5.13
2016-12-03T00:09:36.363Z,-5.23
2016-12-03T00:10:37.845Z,-5.23
2016-12-03T00:11:39.322Z,-5.34
2016-12-03T00:12:40.805Z,-5.29
2016-12-03T00:13:42.322Z,-5.23
2016-12-03T00:14:43.795Z,-5.23
2016-12-03T00:15:45.319Z,-5.29
2016-12-03T00:16:46.835Z,-5.34
2016-12-03T00:17:48.315Z,-5.39
2016-12-03T00:18:49.814Z,-5.39
2016-12-03T00:19:51.347Z,-5.23
2016-12-03T00:20:52.876Z,-5.23
2016-12-03T00:21:54.360Z,-5.23
2016-12-03T00:22:55.842Z,-5.23
2016-12-03T00:23:57.376Z,-5.29
2016-12-03T00:24:58.866Z,-5.39
2016-12-03T00:26:00.346Z,-5.45
2016-12-03T00:27:01.856Z,-5.45
2016-12-03T00:28:03.315Z,-5.5
2016-12-03T00:29:04.848Z,-5.5
2016-12-03T00:30:06.343Z,-5.55
2016-12-03T00:31:07.830Z,-5.61
2016-12-03T00:32:09.309Z,-5.66
2016-12-03T00:33:10.790Z,-5.66
2016-12-03T00:34:12.272Z,-5.72
2016-12-03T00:35:13.803Z,-5.72
2016-12-03T00:36:15.280Z,-5.72
2016-12-03T00:37:16.795Z,-5.72
2016-12-03T00:38:18.278Z,-5.72
2016-12-03T00:39:19.816Z,-5.66
2016-12-03T00:40:21.324Z,-5.66
2016-12-03T00:41:22.807Z,-5.72
2016-12-03T00:42:24.290Z,-5.77
2016-12-03T00:43:25.765Z,-5.82
2016-12-03T00:44:27.276Z,-5.77
2016-12-03T00:45:28.753Z,-5.72
2016-12-03T00:46:30.235Z,-5.61
2016-12-03T00:47:31.758Z,-5.5
2016-12-03T00:48:33.248Z,-5.34
2016-12-03T00:49:34.752Z,-5.34
2016-12-03T00:50:36.230Z,-5.39
2016-12-03T00:51:37.696Z,-5.5
2016-12-03T00:52:39.197Z,-5.61
2016-12-03T00:53:40.689Z,-5.66
2016-12-03T00:54:42.180Z,-5.77
2016-12-03T00:55:43.659Z,-5.77
2016-12-03T00:56:45.145Z,-5.82
2016-12-03T00:57:46.664Z,-5.82
2016-12-03T00:58:48.144Z,-5.82
2016-12-03T00:59:49.667Z,-5.77
2016-12-03T01:00:51.151Z,-5.77
2016-12-03T01:01:52.647Z,-5.82
2016-12-03T01:02:54.128Z,-5.82
2016-12-03T01:03:55.607Z,-5.82
2016-12-03T01:04:57.113Z,-5.77
2016-12-03T01:05:58.592Z,-5.72
2016-12-03T01:07:00.090Z,-5.72
2016-12-03T01:08:01.599Z,-5.66
2016-12-03T01:09:03.093Z,-5.66
2016-12-03T01:10:04.579Z,-5.72
2016-12-03T01:11:06.088Z,-5.66
2016-12-03T01:12:07.566Z,-5.77
2016-12-03T01:13:09.055Z,-5.72
2016-12-03T01:14:10.549Z,-5.72
2016-12-03T01:15:12.054Z,-5.72
2016-12-03T01:16:13.570Z,-5.72
2016-12-03T01:17:15.099Z,-5.72
2016-12-03T01:18:16.606Z,-5.72
2016-12-03T01:19:18.089Z,-5.82
2016-12-03T01:20:19.588Z,-5.88
2016-12-03T01:21:21.122Z,-5.88
2016-12-03T01:22:22.607Z,-5.88
2016-12-03T01:23:24.134Z,-5.88
2016-12-03T01:24:25.607Z,-5.77
2016-12-03T01:25:27.093Z,-5.72
2016-12-03T01:26:28.616Z,-5.72
2016-12-03T01:27:30.101Z,-5.72
2016-12-03T01:28:31.614Z,-5.72
2016-12-03T01:29:33.159Z,-5.72
2016-12-03T01:30:34.713Z,-5.72
2016-12-03T01:31:36.189Z,-5.77
2016-12-03T01:32:37.728Z,-5.72
2016-12-03T01:33:39.264Z,-5.66
2016-12-03T01:34:40.754Z,-5.55
2016-12-03T01:35:42.260Z,-5.39
2016-12-03T01:36:43.754Z,-5.29
2016-12-03T01:37:45.240Z,-5.34
2016-12-03T01:38:46.734Z,-5.34
2016-12-03T01:39:48.216Z,-5.34
2016-12-03T01:40:49.707Z,-5.45
2016-12-03T01:41:51.192Z,-5.55
2016-12-03T01:42:52.748Z,-5.61
2016-12-03T01:43:54.237Z,-5.66
2016-12-03T01:44:55.721Z,-5.77
2016-12-03T01:45:57.218Z,-5.82
2016-12-03T01:46:58.732Z,-5.82
2016-12-03T01:48:00.211Z,-5.88
2016-12-03T01:49:01.747Z,-5.88
2016-12-03T01:50:03.229Z,-5.77
2016-12-03T01:51:04.757Z,-5.77
2016-12-03T01:52:06.312Z,-5.72
2016-12-03T01:53:07.792Z,-5.61
2016-12-03T01:54:09.253Z,-5.5
2016-12-03T01:55:10.733Z,-5.39
2016-12-03T01:56:12.240Z,-5.39
2016-12-03T01:57:13.722Z,-5.39
2016-12-03T01:58:15.201Z,-5.39
2016-12-03T01:59:16.701Z,-5.34
2016-12-03T02:00:18.183Z,-5.39
2016-12-03T02:01:19.666Z,-5.61
2016-12-03T02:02:21.145Z,-5.66
2016-12-03T02:03:22.699Z,-5.77
2016-12-03T02:04:24.215Z,-5.82
2016-12-03T02:05:25.700Z,-5.77
2016-12-03T02:06:27.210Z,-5.66
2016-12-03T02:07:28.708Z,-5.61
2016-12-03T02:08:30.241Z,-5.55
2016-12-03T02:09:31.728Z,-5.55
2016-12-03T02:10:33.208Z,-5.61
2016-12-03T02:11:34.701Z,-5.72
2016-12-03T02:12:36.257Z,-5.77
2016-12-03T02:13:37.739Z,-5.82
2016-12-03T02:14:39.224Z,-5.88
2016-12-03T02:15:40.740Z,-5.82
2016-12-03T02:16:42.233Z,-5.82
2016-12-03T02:17:43.767Z,-5.88
2016-12-03T02:18:45.305Z,-5.93
2016-12-03T02:19:46.836Z,-5.99
2016-12-03T02:20:48.350Z,-6.04
2016-12-03T02:21:49.902Z,-6.04
2016-12-03T02:22:51.423Z,-6.09
2016-12-03T02:23:52.946Z,-6.09
2016-12-03T02:24:54.484Z,-6.09
2016-12-03T02:25:55.963Z,-6.09
2016-12-03T02:26:57.505Z,-6.04
2016-12-03T02:27:58.982Z,-5.99
2016-12-03T02:29:00.467Z,-5.99
2016-12-03T02:30:01.949Z,-5.99
2016-12-03T02:31:03.469Z,-5.99
2016-12-03T02:32:04.964Z,-6.04
2016-12-03T02:33:06.467Z,-6.04
2016-12-03T02:34:07.956Z,-6.04
2016-12-03T02:35:09.489Z,-5.99
2016-12-03T02:36:10.976Z,-6.04
2016-12-03T02:37:12.536Z,-6.04
2016-12-03T02:38:14.059Z,-6.04
2016-12-03T02:39:15.540Z,-6.09
2016-12-03T02:40:17.051Z,-6.15
2016-12-03T02:41:18.519Z,-6.2
2016-12-03T02:42:20.031Z,-6.2
2016-12-03T02:43:21.514Z,-6.09
2016-12-03T02:44:23.013Z,-5.99
2016-12-03T02:45:24.488Z,-5.82
2016-12-03T02:46:25.976Z,-5.77
2016-12-03T02:47:27.497Z,-5.82
2016-12-03T02:48:29.017Z,-5.88
2016-12-03T02:49:30.494Z,-5.93
2016-12-03T02:50:31.989Z,-5.88
2016-12-03T02:51:33.469Z,-5.82
2016-12-03T02:52:34.954Z,-5.77
2016-12-03T02:53:36.486Z,-5.72
2016-12-03T02:54:37.977Z,-5.66
2016-12-03T02:55:39.456Z,-5.61
2016-12-03T02:56:40.954Z,-5.66
2016-12-03T02:57:42.523Z,-5.61
2016-12-03T02:58:44.009Z,-5.61
2016-12-03T02:59:45.492Z,-5.61
2016-12-03T03:00:46.975Z,-5.72
2016-12-03T03:01:48.451Z,-5.82
2016-12-03T03:02:49.947Z,-5.88
2016-12-03T03:03:51.480Z,-5.88
2016-12-03T03:04:52.967Z,-5.82
2016-12-03T03:05:54.441Z,-5.77
2016-12-03T03:06:55.949Z,-5.72
2016-12-03T03:07:57.447Z,-5.72
2016-12-03T03:08:58.925Z,-5.66
2016-12-03T03:10:00.456Z,-5.61
2016-12-03T03:11:01.942Z,-5.55
2016-12-03T03:12:03.426Z,-5.66
2016-12-03T03:13:04.924Z,-5.66
2016-12-03T03:14:06.410Z,-5.66
2016-12-03T03:15:07.891Z,-5.66
2016-12-03T03:16:09.385Z,-5.66
2016-12-03T03:17:10.905Z,-5.66
2016-12-03T03:18:12.429Z,-5.72
2016-12-03T03:19:13.907Z,-5.66
2016-12-03T03:20:15.387Z,-5.77
2016-12-03T03:21:16.922Z,-5.88
2016-12-03T03:22:18.409Z,-5.88
2016-12-03T03:23:19.894Z,-5.93
2016-12-03T03:24:21.406Z,-5.93
2016-12-03T03:25:22.888Z,-5.93
2016-12-03T03:26:24.417Z,-5.99
2016-12-03T03:27:25.927Z,-6.04
2016-12-03T03:28:27.419Z,-6.04
2016-12-03T03:29:28.919Z,-5.93
2016-12-03T03:30:30.396Z,-5.82
2016-12-03T03:31:31.881Z,-5.82
2016-12-03T03:32:33.412Z,-5.77
2016-12-03T03:33:34.942Z,-5.77
2016-12-03T03:34:36.429Z,-5.77
2016-12-03T03:35:37.915Z,-5.82
2016-12-03T03:36:39.435Z,-5.82
2016-12-03T03:37:40.960Z,-5.93
2016-12-03T03:38:42.516Z,-5.99
2016-12-03T03:39:44.006Z,-6.04
2016-12-03T03:40:45.525Z,-6.09
2016-12-03T03:41:47.006Z,-6.09
2016-12-03T03:42:48.488Z,-6.15
2016-12-03T03:43:50.017Z,-6.15
2016-12-03T03:44:51.496Z,-6.15
2016-12-03T03:45:52.975Z,-6.15
2016-12-03T03:46:54.508Z,-6.15
2016-12-03T03:47:56.059Z,-6.26
2016-12-03T03:48:57.569Z,-6.26
2016-12-03T03:49:59.110Z,-6.26
2016-12-03T03:51:00.584Z,-6.31
2016-12-03T03:52:02.118Z,-6.31
2016-12-03T03:53:03.648Z,-6.26
2016-12-03T03:54:05.155Z,-6.26
2016-12-03T03:55:06.672Z,-6.26
2016-12-03T03:56:08.186Z,-6.31
2016-12-03T03:57:09.670Z,-6.31
2016-12-03T03:58:11.154Z,-6.37
2016-12-03T03:59:12.640Z,-6.42
2016-12-03T04:00:14.124Z,-6.42
2016-12-03T04:01:15.607Z,-6.48
2016-12-03T04:02:17.162Z,-6.42
2016-12-03T04:03:18.653Z,-6.37
2016-12-03T04:04:20.149Z,-6.37
2016-12-03T04:05:21.640Z,-6.31
2016-12-03T04:06:23.149Z,-6.26
2016-12-03T04:07:24.630Z,-6.26
2016-12-03T04:08:26.102Z,-6.2
2016-12-03T04:09:27.645Z,-6.09
2016-12-03T04:10:29.131Z,-6.04
2016-12-03T04:11:30.627Z,-6.09
2016-12-03T04:12:32.148Z,-6.09
2016-12-03T04:13:33.634Z,-6.15
2016-12-03T04:14:35.194Z,-6.15
2016-12-03T04:15:36.679Z,-6.15
2016-12-03T04:16:38.143Z,-6.2
2016-12-03T04:17:39.613Z,-6.2
2016-12-03T04:18:41.142Z,-6.09
2016-12-03T04:19:42.629Z,-5.99
2016-12-03T04:20:44.129Z,-6.04
2016-12-03T04:21:45.631Z,-6.09
2016-12-03T04:22:47.118Z,-6.15
2016-12-03T04:23:48.574Z,-6.2
2016-12-03T04:24:50.067Z,-6.31
2016-12-03T04:25:51.588Z,-6.31
2016-12-03T04:26:53.068Z,-6.37
2016-12-03T04:27:54.554Z,-6.42
2016-12-03T04:28:56.065Z,-6.42
2016-12-03T04:29:57.566Z,-6.37
2016-12-03T04:30:59.051Z,-6.42
2016-12-03T04:32:00.593Z,-6.42
2016-12-03T04:33:02.115Z,-6.37
2016-12-03T04:34:03.600Z,-6.37
2016-12-03T04:35:05.094Z,-6.37
2016-12-03T04:36:06.621Z,-6.31
2016-12-03T04:37:08.136Z,-6.31
2016-12-03T04:38:09.618Z,-6.31
2016-12-03T04:39:11.138Z,-6.31
2016-12-03T04:40:12.631Z,-6.37
2016-12-03T04:41:14.119Z,-6.42
2016-12-03T04:42:15.628Z,-6.53
2016-12-03T04:43:17.114Z,-6.53
2016-12-03T04:44:18.588Z,-6.48
2016-12-03T04:45:20.108Z,-6.53
2016-12-03T04:46:21.601Z,-6.53
2016-12-03T04:47:23.087Z,-6.59
2016-12-03T04:48:24.563Z,-6.42
2016-12-03T04:49:26.048Z,-6.31
2016-12-03T04:50:27.559Z,-6.37
2016-12-03T04:51:29.087Z,-6.42
2016-12-03T04:52:30.610Z,-6.42
2016-12-03T04:53:32.097Z,-6.42
2016-12-03T04:54:33.591Z,-6.48
2016-12-03T04:55:35.137Z,-6.53
2016-12-03T04:56:36.631Z,-6.42
2016-12-03T04:57:38.117Z,-6.26
2016-12-03T04:58:39.595Z,-6.09
2016-12-03T04:59:41.080Z,-6.04
2016-12-03T05:00:42.571Z,-5.99
2016-12-03T05:01:44.054Z,-5.99
2016-12-03T05:02:45.571Z,-5.99
2016-12-03T05:03:47.102Z,-5.99
2016-12-03T05:04:48.638Z,-5.93
2016-12-03T05:05:50.185Z,-5.93
2016-12-03T05:06:51.665Z,-5.93
2016-12-03T05:07:53.138Z,-5.93
2016-12-03T05:08:54.618Z,-5.99
2016-12-03T05:09:56.103Z,-6.04
2016-12-03T05:10:57.642Z,-6.09
2016-12-03T05:11:59.149Z,-6.09
2016-12-03T05:13:00.670Z,-6.09
2016-12-03T05:14:02.150Z,-6.15
2016-12-03T05:15:03.622Z,-6.2
2016-12-03T05:16:05.103Z,-6.15
2016-12-03T05:17:06.611Z,-6.09
2016-12-03T05:18:08.125Z,-6.04
2016-12-03T05:19:09.612Z,-5.99
2016-12-03T05:20:11.148Z,-5.88
2016-12-03T05:21:12.699Z,-5.82
2016-12-03T05:22:14.222Z,-5.82
2016-12-03T05:23:15.719Z,-5.72
2016-12-03T05:24:17.200Z,-5.72
2016-12-03T05:25:18.693Z,-5.77
2016-12-03T05:26:20.184Z,-5.77
2016-12-03T05:27:21.719Z,-5.77
2016-12-03T05:28:23.205Z,-5.77
2016-12-03T05:29:24.694Z,-5.77
2016-12-03T05:30:26.187Z,-5.82
2016-12-03T05:31:27.699Z,-5.99
2016-12-03T05:32:29.198Z,-6.09
2016-12-03T05:33:30.700Z,-6.15
2016-12-03T05:34:32.164Z,-6.2
2016-12-03T05:35:33.663Z,-6.2
2016-12-03T05:36:35.152Z,-6.26
2016-12-03T05:37:36.708Z,-6.31
2016-12-03T05:38:38.234Z,-6.37
2016-12-03T05:39:39.716Z,-6.48
2016-12-03T05:40:41.224Z,-6.48
2016-12-03T05:41:42.764Z,-6.53
2016-12-03T05:42:44.259Z,-6.53
2016-12-03T05:43:45.795Z,-6.53
2016-12-03T05:44:47.281Z,-6.59
2016-12-03T05:45:48.755Z,-6.59
2016-12-03T05:46:50.289Z,-6.65
2016-12-03T05:47:51.822Z,-6.59
2016-12-03T05:48:53.303Z,-6.53
2016-12-03T05:49:54.840Z,-6.42
2016-12-03T05:50:56.343Z,-6.37
2016-12-03T05:51:57.825Z,-6.42
2016-12-03T05:52:59.306Z,-6.42
2016-12-03T05:54:00.835Z,-6.42
2016-12-03T05:55:02.315Z,-6.31
2016-12-03T05:56:03.801Z,-6.26
2016-12-03T05:57:05.383Z,-6.26
2016-12-03T05:58:06.870Z,-6.31
2016-12-03T05:59:08.344Z,-6.37
2016-12-03T06:00:09.827Z,-6.42
2016-12-03T06:01:11.306Z,-6.48
2016-12-03T06:02:12.795Z,-6.53
2016-12-03T06:03:14.280Z,-6.53
2016-12-03T06:04:15.764Z,-6.59
2016-12-03T06:05:17.256Z,-6.59
2016-12-03T06:06:18.740Z,-6.65
2016-12-03T06:07:20.275Z,-6.7
2016-12-03T06:08:21.751Z,-6.7
2016-12-03T06:09:23.261Z,-6.7
2016-12-03T06:10:24.740Z,-6.76
2016-12-03T06:11:26.224Z,-6.76
2016-12-03T06:12:27.723Z,-6.76
2016-12-03T06:13:29.238Z,-6.81
2016-12-03T06:14:30.737Z,-6.76
2016-12-03T06:15:32.199Z,-6.7
2016-12-03T06:16:33.690Z,-6.48
2016-12-03T06:17:35.208Z,-6.31
2016-12-03T06:18:36.704Z,-6.26
2016-12-03T06:19:38.210Z,-6.31
2016-12-03T06:20:39.719Z,-6.37
2016-12-03T06:21:41.255Z,-6.42
2016-12-03T06:22:42.748Z,-6.48
2016-12-03T06:23:44.228Z,-6.53
2016-12-03T06:24:45.715Z,-6.53
2016-12-03T06:25:47.219Z,-6.59
2016-12-03T06:26:48.723Z,-6.59
2016-12-03T06:27:50.261Z,-6.59
2016-12-03T06:28:51.770Z,-6.59
2016-12-03T06:29:53.247Z,-6.59
2016-12-03T06:30:54.725Z,-6.59
2016-12-03T06:31:56.184Z,-6.7
2016-12-03T06:32:57.678Z,-6.7
2016-12-03T06:33:59.164Z,-6.81
2016-12-03T06:35:00.681Z,-6.81
2016-12-03T06:36:02.165Z,-6.92
2016-12-03T06:37:03.652Z,-6.98
2016-12-03T06:38:05.233Z,-6.98
2016-12-03T06:39:06.718Z,-6.92
2016-12-03T06:40:08.198Z,-6.87
2016-12-03T06:41:09.715Z,-6.76
2016-12-03T06:42:11.183Z,-6.7
2016-12-03T06:43:12.668Z,-6.7
2016-12-03T06:44:14.127Z,-6.7
2016-12-03T06:45:15.653Z,-6.76
2016-12-03T06:46:17.139Z,-6.76
2016-12-03T06:47:18.656Z,-6.65
2016-12-03T06:48:20.225Z,-6.48
2016-12-03T06:49:21.719Z,-6.48
2016-12-03T06:50:23.203Z,-6.53
2016-12-03T06:51:24.682Z,-6.65
2016-12-03T06:52:26.201Z,-6.7
2016-12-03T06:53:27.702Z,-6.76
2016-12-03T06:54:29.186Z,-6.81
2016-12-03T06:55:30.661Z,-6.81
2016-12-03T06:56:32.164Z,-6.81
2016-12-03T06:57:33.652Z,-6.81
2016-12-03T06:58:35.174Z,-6.81
2016-12-03T06:59:36.708Z,-6.76
2016-12-03T07:00:38.190Z,-6.53
2016-12-03T07:01:39.673Z,-6.42
2016-12-03T07:02:41.164Z,-6.26
2016-12-03T07:03:42.630Z,-6.2
2016-12-03T07:04:44.118Z,-6.09
2016-12-03T07:05:45.601Z,-6.09
2016-12-03T07:06:47.105Z,-6.2
2016-12-03T07:07:48.587Z,-6.31
2016-12-03T07:08:50.120Z,-6.37
2016-12-03T07:09:51.599Z,-6.42
2016-12-03T07:10:53.097Z,-6.48
2016-12-03T07:11:54.576Z,-6.53
2016-12-03T07:12:56.071Z,-6.48
2016-12-03T07:13:57.571Z,-6.42
2016-12-03T07:14:59.105Z,-6.31
2016-12-03T07:16:00.597Z,-6.31
2016-12-03T07:17:02.084Z,-6.37
2016-12-03T07:18:03.612Z,-6.42
2016-12-03T07:19:05.158Z,-6.48
2016-12-03T07:20:06.684Z,-6.48
2016-12-03T07:21:08.221Z,-6.53
2016-12-03T07:22:09.706Z,-6.53
2016-12-03T07:23:11.267Z,-6.53
2016-12-03T07:24:12.821Z,-6.53
2016-12-03T07:25:14.302Z,-6.59
2016-12-03T07:26:15.780Z,-6.53
2016-12-03T07:27:17.294Z,-6.53
2016-12-03T07:28:18.819Z,-6.42
2016-12-03T07:29:20.368Z,-6.37
2016-12-03T07:30:21.853Z,-6.31
2016-12-03T07:31:23.358Z,-6.31
2016-12-03T07:32:24.858Z,-6.31
2016-12-03T07:33:26.341Z,-6.26
2016-12-03T07:34:27.863Z,-6.2
2016-12-03T07:35:29.366Z,-6.2
2016-12-03T07:36:30.878Z,-6.2
2016-12-03T07:37:32.392Z,-6.2
2016-12-03T07:38:33.902Z,-6.2
2016-12-03T07:39:35.405Z,-6.15
2016-12-03T07:40:36.900Z,-6.15
2016-12-03T07:41:38.384Z,-6.09
2016-12-03T07:42:39.905Z,-6.15
2016-12-03T07:43:41.391Z,-6.09
2016-12-03T07:44:42.871Z,-6.15
2016-12-03T07:45:44.352Z,-6.15
2016-12-03T07:46:45.839Z,-6.15
2016-12-03T07:47:47.320Z,-6.15
2016-12-03T07:48:48.853Z,-6.09
2016-12-03T07:49:50.345Z,-6.04
2016-12-03T07:50:51.826Z,-5.99
2016-12-03T07:51:53.310Z,-5.93
2016-12-03T07:52:54.844Z,-5.93
2016-12-03T07:53:56.331Z,-5.88
2016-12-03T07:54:57.879Z,-5.82
2016-12-03T07:55:59.361Z,-5.77
2016-12-03T07:57:00.847Z,-5.77
2016-12-03T07:58:02.346Z,-5.72
2016-12-03T07:59:03.824Z,-5.55
2016-12-03T08:00:05.315Z,-5.45
2016-12-03T08:01:06.825Z,-5.34
2016-12-03T08:02:08.320Z,-5.29
2016-12-03T08:03:09.838Z,-5.23
2016-12-03T08:04:11.326Z,-5.29
2016-12-03T08:05:12.834Z,-5.39
2016-12-03T08:06:14.318Z,-5.39
2016-12-03T08:07:15.802Z,-5.45
2016-12-03T08:08:17.277Z,-5.5
2016-12-03T08:09:18.750Z,-5.5
2016-12-03T08:10:20.243Z,-5.5
2016-12-03T08:11:21.717Z,-5.45
2016-12-03T08:12:23.252Z,-5.39
2016-12-03T08:13:24.764Z,-5.29
2016-12-03T08:14:26.241Z,-5.29
2016-12-03T08:15:27.749Z,-5.29
2016-12-03T08:16:29.226Z,-5.29
2016-12-03T08:17:30.711Z,-5.23
2016-12-03T08:18:32.195Z,-5.23
2016-12-03T08:19:33.676Z,-5.18
2016-12-03T08:20:35.186Z,-5.13
2016-12-03T08:21:36.726Z,-5.08
2016-12-03T08:22:38.207Z,-5.08
2016-12-03T08:23:39.730Z,-4.92
2016-12-03T08:24:41.215Z,-4.92
2016-12-03T08:25:42.768Z,-4.86
2016-12-03T08:26:44.248Z,-4.81
2016-12-03T08:27:45.733Z,-4.76
2016-12-03T08:28:47.245Z,-4.76
2016-12-03T08:29:48.721Z,-4.71
2016-12-03T08:30:50.244Z,-4.71
2016-12-03T08:31:51.724Z,-4.66
2016-12-03T08:32:53.233Z,-4.6
2016-12-03T08:33:54.753Z,-4.55
2016-12-03T08:34:56.252Z,-4.55
2016-12-03T08:35:57.739Z,-4.5
2016-12-03T08:36:59.255Z,-4.5
2016-12-03T08:38:00.748Z,-4.4
2016-12-03T08:39:02.251Z,-4.34
2016-12-03T08:40:03.738Z,-4.24
2016-12-03T08:41:05.242Z,-4.19
2016-12-03T08:42:06.755Z,-4.19
2016-12-03T08:43:08.278Z,-4.19
2016-12-03T08:44:09.791Z,-4.14
2016-12-03T08:45:11.268Z,-4.09
2016-12-03T08:46:12.777Z,-4.09
2016-12-03T08:47:14.256Z,-4.04
2016-12-03T08:48:15.743Z,-4.04
2016-12-03T08:49:17.228Z,-4.04
2016-12-03T08:50:18.760Z,-3.99
2016-12-03T08:51:20.258Z,-3.88
2016-12-03T08:52:21.791Z,-3.78
2016-12-03T08:53:23.267Z,-3.73
2016-12-03T08:54:24.806Z,-3.68
2016-12-03T08:55:26.289Z,-3.58
2016-12-03T08:56:27.863Z,-3.53
2016-12-03T08:57:29.412Z,-3.58
2016-12-03T08:58:30.920Z,-3.58
2016-12-03T08:59:32.435Z,-3.58
2016-12-03T09:00:33.922Z,-3.58
2016-12-03T09:01:35.432Z,-3.58
2016-12-03T09:02:36.915Z,-3.53
2016-12-03T09:03:38.433Z,-3.48
2016-12-03T09:04:39.966Z,-3.43
2016-12-03T09:05:41.445Z,-3.38
2016-12-03T09:06:42.972Z,-3.43
2016-12-03T09:07:44.496Z,-3.38
2016-12-03T09:08:46.001Z,-3.38
2016-12-03T09:09:47.486Z,-3.38
2016-12-03T09:10:49.021Z,-3.33
2016-12-03T09:11:50.539Z,-3.28
2016-12-03T09:12:52.051Z,-3.28
2016-12-03T09:13:53.583Z,-3.18
2016-12-03T09:14:55.078Z,-3.13
2016-12-03T09:15:56.563Z,-3.03
2016-12-03T09:16:58.052Z,-2.93
2016-12-03T09:17:59.554Z,-2.83
2016-12-03T09:19:01.046Z,-2.78
2016-12-03T09:20:02.530Z,-2.78
2016-12-03T09:21:04.011Z,-2.73
2016-12-03T09:22:05.547Z,-2.73
2016-12-03T09:23:07.078Z,-2.78
2016-12-03T09:24:08.558Z,-2.68
2016-12-03T09:25:10.050Z,-2.59
2016-12-03T09:26:11.568Z,-2.49
2016-12-03T09:27:13.055Z,-2.49
2016-12-03T09:28:14.583Z,-2.44
2016-12-03T09:29:16.063Z,-2.44
2016-12-03T09:30:17.541Z,-2.39
2016-12-03T09:31:19.025Z,-2.34
2016-12-03T09:32:20.516Z,-2.24
2016-12-03T09:33:22.004Z,-2.24
2016-12-03T09:34:23.467Z,-2.2
2016-12-03T09:35:24.956Z,-2.15
2016-12-03T09:36:26.424Z,-2.1
2016-12-03T09:37:27.914Z,-2.05
2016-12-03T09:38:29.440Z,-2.05
2016-12-03T09:39:30.925Z,-2.05
2016-12-03T09:40:32.444Z,-2.1
2016-12-03T09:41:33.907Z,-2.1
2016-12-03T09:42:35.411Z,-2.1
2016-12-03T09:43:36.870Z,-2.1
2016-12-03T09:44:38.393Z,-2.05
2016-12-03T09:45:39.877Z,-1.91
2016-12-03T09:46:41.356Z,-1.86
2016-12-03T09:47:42.848Z,-1.81
2016-12-03T09:48:44.359Z,-1.81
2016-12-03T09:49:45.852Z,-1.81
2016-12-03T09:50:47.385Z,-1.81
2016-12-03T09:51:48.923Z,-1.86
2016-12-03T09:52:50.426Z,-1.81
2016-12-03T09:53:51.910Z,-1.81
2016-12-03T09:54:53.437Z,-1.81
2016-12-03T09:55:54.974Z,-1.72
2016-12-03T09:56:56.451Z,-1.67
2016-12-03T09:57:57.939Z,-1.62
2016-12-03T09:58:59.446Z,-1.57
2016-12-03T10:00:00.930Z,-1.62
2016-12-03T10:01:02.408Z,-1.62
2016-12-03T10:02:03.904Z,-1.57
2016-12-03T10:03:05.385Z,-1.48
2016-12-03T10:04:06.871Z,-1.43
2016-12-03T10:05:08.361Z,-1.34
2016-12-03T10:06:09.850Z,-1.24
2016-12-03T10:07:11.332Z,-1.24
2016-12-03T10:08:12.818Z,-1.19
2016-12-03T10:09:14.381Z,-1.15
2016-12-03T10:10:15.862Z,-1.19
2016-12-03T10:11:17.351Z,-1.15
2016-12-03T10:12:18.831Z,-1.15
2016-12-03T10:13:20.380Z,-1.15
2016-12-03T10:14:21.841Z,-1.1
2016-12-03T10:15:23.332Z,-1.05
2016-12-03T10:16:24.810Z,-1.01
2016-12-03T10:17:26.342Z,-0.96
2016-12-03T10:18:27.826Z,-0.87
2016-12-03T10:19:29.352Z,-0.82
2016-12-03T10:20:30.839Z,-0.77
2016-12-03T10:21:32.340Z,-0.87
2016-12-03T10:22:33.861Z,-0.87
2016-12-03T10:23:35.363Z,-0.82
2016-12-03T10:24:36.845Z,-0.77
2016-12-03T10:25:38.322Z,-0.73
2016-12-03T10:26:39.802Z,-0.73
2016-12-03T10:27:41.337Z,-0.68
2016-12-03T10:28:42.897Z,-0.63
2016-12-03T10:29:44.413Z,-0.68
2016-12-03T10:30:45.945Z,-0.63
2016-12-03T10:31:47.430Z,-0.59
2016-12-03T10:32:48.911Z,-0.59
2016-12-03T10:33:50.459Z,-0.54
2016-12-03T10:34:51.971Z,-0.49
2016-12-03T10:35:53.452Z,-0.49
2016-12-03T10:36:54.945Z,-0.49
2016-12-03T10:37:56.423Z,-0.49
2016-12-03T10:38:57.914Z,-0.54
2016-12-03T10:39:59.473Z,-0.49
2016-12-03T10:41:00.955Z,-0.49
2016-12-03T10:42:02.435Z,-0.49
2016-12-03T10:43:03.969Z,-0.49
2016-12-03T10:44:05.530Z,-0.49
2016-12-03T10:45:06.991Z,-0.4
2016-12-03T10:46:08.496Z,-0.36
2016-12-03T10:47:09.999Z,-0.31
2016-12-03T10:48:11.480Z,-0.26
2016-12-03T10:49:12.994Z,-0.31
2016-12-03T10:50:14.481Z,-0.31
2016-12-03T10:51:16.014Z,-0.31
2016-12-03T10:52:17.498Z,-0.26
2016-12-03T10:53:19.003Z,-0.22
2016-12-03T10:54:20.498Z,-0.22
2016-12-03T10:55:22.029Z,-0.22
2016-12-03T10:56:23.508Z,-0.22
2016-12-03T10:57:25.047Z,-0.22
2016-12-03T10:58:26.530Z,-0.22
2016-12-03T10:59:28.017Z,-0.22
2016-12-03T11:00:29.514Z,-0.08
2016-12-03T11:01:30.995Z,-0.03
2016-12-03T11:02:32.461Z,0.01
2016-12-03T11:03:33.969Z,-0.08
2016-12-03T11:04:35.446Z,0.01
2016-12-03T11:05:36.915Z,0.06
2016-12-03T11:06:38.428Z,0.06
2016-12-03T11:07:39.929Z,0.1
2016-12-03T11:08:41.399Z,0.19
2016-12-03T11:09:42.878Z,0.15
2016-12-03T11:10:44.386Z,0.1
2016-12-03T11:11:45.852Z,0.06
2016-12-03T11:12:47.331Z,0.1
2016-12-03T11:13:48.837Z,0.1
2016-12-03T11:14:50.333Z,0.1
2016-12-03T11:15:51.807Z,0.15
2016-12-03T11:16:53.268Z,0.15
2016-12-03T11:17:54.764Z,0.1
2016-12-03T11:18:56.232Z,0.15
2016-12-03T11:19:57.723Z,0.15
2016-12-03T11:20:59.201Z,0.15
2016-12-03T11:22:00.662Z,0.15
2016-12-03T11:23:02.158Z,0.15
2016-12-03T11:24:03.632Z,0.19
2016-12-03T11:25:05.147Z,0.24
2016-12-03T11:26:06.610Z,0.28
2016-12-03T11:27:08.131Z,0.33
2016-12-03T11:28:09.633Z,0.28
2016-12-03T11:29:11.133Z,0.33
2016-12-03T11:30:12.610Z,0.42
2016-12-03T11:31:14.104Z,0.51
2016-12-03T11:32:15.588Z,0.56
2016-12-03T11:33:17.102Z,0.51
2016-12-03T11:34:18.572Z,0.47
2016-12-03T11:35:20.109Z,0.47
2016-12-03T11:36:21.580Z,0.47
2016-12-03T11:37:23.095Z,0.47
2016-12-03T11:38:24.566Z,0.47
2016-12-03T11:39:26.106Z,0.47
2016-12-03T11:40:27.594Z,0.47
2016-12-03T11:41:29.074Z,0.47
2016-12-03T11:42:30.540Z,0.47
2016-12-03T11:43:32.063Z,0.51
2016-12-03T11:44:33.522Z,0.51
2016-12-03T11:45:35.050Z,0.6
2016-12-03T11:46:36.518Z,0.69
2016-12-03T11:47:37.983Z,0.78
2016-12-03T11:48:39.444Z,0.78
2016-12-03T11:49:40.913Z,0.74
2016-12-03T11:50:42.396Z,0.65
2016-12-03T11:51:43.917Z,0.69
2016-12-03T11:52:45.430Z,0.74
2016-12-03T11:53:46.947Z,0.74
2016-12-03T11:54:48.411Z,0.74
2016-12-03T11:55:49.900Z,0.74
2016-12-03T11:56:51.366Z,0.74
2016-12-03T11:57:52.869Z,0.69
2016-12-03T11:58:54.323Z,0.6
2016-12-03T11:59:55.807Z,0.6
2016-12-03T12:00:57.276Z,0.56
2016-12-03T12:01:58.752Z,0.6
2016-12-03T12:03:00.198Z,0.6
2016-12-03T12:04:01.712Z,0.69
2016-12-03T12:05:03.236Z,0.74
2016-12-03T12:06:04.737Z,0.69
2016-12-03T12:07:06.241Z,0.65
2016-12-03T12:08:07.728Z,0.65
2016-12-03T12:09:09.198Z,0.74
2016-12-03T12:10:10.665Z,0.78
2016-12-03T12:11:12.147Z,0.78
2016-12-03T12:12:13.631Z,0.74
2016-12-03T12:13:15.101Z,0.78
2016-12-03T12:14:16.567Z,0.87
2016-12-03T12:15:18.037Z,0.91
2016-12-03T12:16:19.522Z,1
2016-12-03T12:17:20.979Z,1.23
2016-12-03T12:18:22.498Z,1.36
2016-12-03T12:19:23.998Z,1.54
2016-12-03T12:20:25.478Z,1.8
2016-12-03T12:21:26.934Z,2.1
2016-12-03T12:22:28.411Z,2.49
2016-12-03T12:23:29.884Z,4.18
2016-12-03T12:24:31.405Z,7.41
2016-12-03T12:25:32.879Z,10.41
2016-12-03T12:26:34.408Z,12.64
2016-12-03T12:27:35.889Z,14.36
2016-12-03T12:28:37.375Z,15.77
2016-12-03T12:29:38.920Z,16.78
2016-12-03T12:30:40.400Z,17.36
2016-12-03T12:31:41.911Z,17.9
2016-12-03T12:32:43.427Z,18.36
2016-12-03T12:33:44.957Z,18.72
2016-12-03T12:34:46.435Z,19.15
2016-12-03T12:35:47.917Z,19.44
2016-12-03T12:36:49.412Z,19.47
2016-12-03T12:37:50.885Z,19.72
2016-12-03T12:38:52.370Z,20.01
2016-12-03T12:39:53.876Z,20.3
2016-12-03T12:40:55.358Z,20.44
2016-12-03T12:41:56.874Z,20.8
2016-12-03T12:42:58.358Z,20.69
2016-12-03T12:43:59.928Z,20.69
2016-12-03T12:45:01.405Z,20.84
2016-12-03T12:46:02.937Z,21.16
2016-12-03T12:47:04.427Z,21.2
2016-12-03T12:48:05.959Z,21.3
2016-12-03T12:49:07.461Z,21.37
2016-12-03T12:50:08.984Z,21.37
2016-12-03T12:51:10.504Z,21.45
2016-12-03T12:52:11.994Z,21.23
2016-12-03T12:53:13.514Z,21.37
2016-12-03T12:54:15.039Z,21.63
2016-12-03T12:55:16.522Z,21.37
2016-12-03T12:56:18.005Z,21.27
2016-12-03T12:57:19.484Z,21.12
2016-12-03T12:58:20.974Z,20.87
2016-12-03T12:59:22.449Z,20.87
2016-12-03T13:00:23.910Z,20.3
2016-12-03T13:01:25.426Z,18
2016-12-03T13:02:26.919Z,15.12
2016-12-03T13:03:28.417Z,12.49
2016-12-03T13:04:29.906Z,10.41
2016-12-03T13:05:31.418Z,8.69
2016-12-03T13:06:32.882Z,7.25
2016-12-03T13:07:34.363Z,6.42
2016-12-03T13:08:35.824Z,5.58
2016-12-03T13:09:37.305Z,4.88
2016-12-03T13:10:38.806Z,4.51
2016-12-03T13:11:40.267Z,4.18
2016-12-03T13:12:41.755Z,3.93
2016-12-03T13:13:43.218Z,3.72
2016-12-03T13:14:44.752Z,3.39
2016-12-03T13:15:46.221Z,3.13
2016-12-03T13:16:47.688Z,2.84
2016-12-03T13:17:49.179Z,2.71